CQH1462 ZUDJ-ZGCJ
Flight info
| Callsign | CQH1462 |
|---|---|
| Flight time | 0h 30m |
| Altitude | 8900 |
| Route | EPGAL7 EPGAL A581 BODUV W102 MAKLA MAKLA0 |
| Aircraft | A320/M-SDE3FGHIRWY/LB1 |
Departure
| Time | 2026-05-05 10:14 |
|---|---|
| Airport | Tongren Dejiang Airport (Under Construction) (ZUDJ) |
Arrival
| Time | 2026-05-05 10:45 |
|---|---|
| Airport | Huaihua Zhijiang Airport (ZGCJ) |
| Time | Latitude | Longitude | Altitude | Speed | Heading |
|---|---|---|---|---|---|
| 2026-05-05 10:01 | 28.13703 | 108.16237 | 3618 ft | 0 kts | 274° |
| 2026-05-05 10:07 | 28.13703 | 108.16243 | 3619 ft | 3 kts | 274° |
| 2026-05-05 10:07 | 28.13701 | 108.16265 | 3622 ft | 3 kts | 275° |
| 2026-05-05 10:07 | 28.13700 | 108.16286 | 3627 ft | 3 kts | 275° |
| 2026-05-05 10:07 | 28.13698 | 108.16306 | 3627 ft | 2 kts | 285° |
| 2026-05-05 10:08 | 28.13695 | 108.16316 | 3626 ft | 1 kts | 306° |
| 2026-05-05 10:08 | 28.13690 | 108.16323 | 3625 ft | 1 kts | 327° |
| 2026-05-05 10:08 | 28.13683 | 108.16328 | 3626 ft | 1 kts | 329° |
| 2026-05-05 10:09 | 28.13696 | 108.16322 | 3626 ft | 7 kts | 341° |
| 2026-05-05 10:10 | 28.13749 | 108.16323 | 3622 ft | 7 kts | 4° |
| 2026-05-05 10:10 | 28.13801 | 108.16329 | 3623 ft | 11 kts | 4° |
| 2026-05-05 10:10 | 28.13889 | 108.16342 | 3624 ft | 12 kts | 25° |
| 2026-05-05 10:10 | 28.13903 | 108.16423 | 3622 ft | 11 kts | 94° |
| 2026-05-05 10:11 | 28.13903 | 108.16518 | 3623 ft | 13 kts | 78° |
| 2026-05-05 10:11 | 28.13974 | 108.16560 | 3622 ft | 12 kts | 4° |
| 2026-05-05 10:11 | 28.14052 | 108.16567 | 3620 ft | 11 kts | 5° |
| 2026-05-05 10:11 | 28.14121 | 108.16574 | 3620 ft | 10 kts | 5° |
| 2026-05-05 10:12 | 28.14201 | 108.16582 | 3619 ft | 16 kts | 4° |
| 2026-05-05 10:12 | 28.14331 | 108.16590 | 3618 ft | 19 kts | 3° |
| 2026-05-05 10:12 | 28.14459 | 108.16600 | 3618 ft | 18 kts | 2° |
| 2026-05-05 10:12 | 28.14578 | 108.16608 | 3616 ft | 17 kts | 4° |
| 2026-05-05 10:13 | 28.14686 | 108.16585 | 3615 ft | 16 kts | 359° |
| 2026-05-05 10:13 | 28.14691 | 108.16622 | 3615 ft | 7 kts | 172° |
| 2026-05-05 10:13 | 28.14580 | 108.16610 | 3616 ft | 43 kts | 185° |
| 2026-05-05 10:13 | 28.14041 | 108.16568 | 3621 ft | 110 kts | 184° |
| 2026-05-05 10:14 | 28.13093 | 108.16500 | 3666 ft | 156 kts | 182° |
| 2026-05-05 10:14 | 28.12014 | 108.16429 | 4322 ft | 155 kts | 184° |
| 2026-05-05 10:14 | 28.10943 | 108.16339 | 5083 ft | 154 kts | 183° |
| 2026-05-05 10:14 | 28.09855 | 108.16247 | 5583 ft | 164 kts | 183° |
| 2026-05-05 10:15 | 28.08641 | 108.16145 | 5798 ft | 186 kts | 183° |
| 2026-05-05 10:15 | 28.07283 | 108.16032 | 5950 ft | 206 kts | 184° |
| 2026-05-05 10:15 | 28.05791 | 108.15989 | 6123 ft | 224 kts | 169° |
| 2026-05-05 10:15 | 28.04398 | 108.16859 | 6271 ft | 242 kts | 131° |
| 2026-05-05 10:16 | 28.03776 | 108.18654 | 6642 ft | 257 kts | 94° |
| 2026-05-05 10:16 | 28.04248 | 108.20626 | 7088 ft | 270 kts | 58° |
| 2026-05-05 10:16 | 28.05604 | 108.22129 | 7570 ft | 277 kts | 37° |
| 2026-05-05 10:16 | 28.07190 | 108.23381 | 8127 ft | 279 kts | 35° |
| 2026-05-05 10:17 | 28.08796 | 108.24641 | 8679 ft | 283 kts | 35° |
| 2026-05-05 10:17 | 28.10419 | 108.25912 | 9574 ft | 285 kts | 34° |
| 2026-05-05 10:17 | 28.12044 | 108.27209 | 10368 ft | 287 kts | 37° |
| 2026-05-05 10:17 | 28.13549 | 108.28716 | 11159 ft | 291 kts | 43° |
| 2026-05-05 10:18 | 28.14959 | 108.30367 | 11963 ft | 292 kts | 46° |
| 2026-05-05 10:18 | 28.16336 | 108.32075 | 12767 ft | 295 kts | 46° |
| 2026-05-05 10:18 | 28.17714 | 108.33803 | 13534 ft | 296 kts | 45° |
| 2026-05-05 10:18 | 28.19112 | 108.35533 | 14213 ft | 298 kts | 45° |
| 2026-05-05 10:19 | 28.20529 | 108.37259 | 14509 ft | 299 kts | 44° |
| 2026-05-05 10:19 | 28.21960 | 108.38975 | 14604 ft | 305 kts | 44° |
| 2026-05-05 10:19 | 28.23467 | 108.40825 | 14629 ft | 334 kts | 48° |
| 2026-05-05 10:19 | 28.24895 | 108.43049 | 14631 ft | 363 kts | 56° |
| 2026-05-05 10:20 | 28.26107 | 108.45681 | 14623 ft | 391 kts | 65° |
| 2026-05-05 10:20 | 28.27014 | 108.48681 | 14627 ft | 414 kts | 72° |
| 2026-05-05 10:20 | 28.27863 | 108.51878 | 14627 ft | 431 kts | 72° |
| 2026-05-05 10:20 | 28.28743 | 108.55157 | 14625 ft | 437 kts | 71° |
| 2026-05-05 10:21 | 28.29622 | 108.58413 | 14627 ft | 438 kts | 71° |
| 2026-05-05 10:21 | 28.30516 | 108.61711 | 14630 ft | 438 kts | 71° |
| 2026-05-05 10:21 | 28.31410 | 108.65020 | 14627 ft | 438 kts | 71° |
| 2026-05-05 10:21 | 28.32298 | 108.68320 | 14628 ft | 438 kts | 71° |
| 2026-05-05 10:22 | 28.33186 | 108.71625 | 14623 ft | 437 kts | 72° |
| 2026-05-05 10:22 | 28.34070 | 108.74925 | 14625 ft | 437 kts | 71° |
| 2026-05-05 10:22 | 28.34952 | 108.78226 | 14622 ft | 437 kts | 72° |
| 2026-05-05 10:22 | 28.35833 | 108.81527 | 14621 ft | 437 kts | 71° |
| 2026-05-05 10:23 | 28.36714 | 108.84824 | 14623 ft | 437 kts | 71° |
| 2026-05-05 10:23 | 28.37595 | 108.88127 | 14625 ft | 437 kts | 71° |
| 2026-05-05 10:23 | 28.38473 | 108.91429 | 14625 ft | 437 kts | 71° |
| 2026-05-05 10:23 | 28.39351 | 108.94733 | 14622 ft | 437 kts | 72° |
| 2026-05-05 10:24 | 28.40230 | 108.98039 | 14625 ft | 437 kts | 71° |
| 2026-05-05 10:24 | 28.41108 | 109.01348 | 14628 ft | 437 kts | 72° |
| 2026-05-05 10:24 | 28.41987 | 109.04657 | 14630 ft | 438 kts | 71° |
| 2026-05-05 10:24 | 28.42867 | 109.07966 | 14631 ft | 438 kts | 71° |
| 2026-05-05 10:25 | 28.43745 | 109.11273 | 14632 ft | 438 kts | 72° |
| 2026-05-05 10:25 | 28.44689 | 109.14557 | 14629 ft | 436 kts | 66° |
| 2026-05-05 10:25 | 28.45986 | 109.17664 | 14635 ft | 435 kts | 62° |
| 2026-05-05 10:25 | 28.47330 | 109.20691 | 14635 ft | 435 kts | 62° |
| 2026-05-05 10:26 | 28.48691 | 109.23767 | 14637 ft | 435 kts | 62° |
| 2026-05-05 10:26 | 28.50044 | 109.26838 | 14639 ft | 435 kts | 62° |
| 2026-05-05 10:26 | 28.51393 | 109.29915 | 14641 ft | 435 kts | 62° |
| 2026-05-05 10:26 | 28.52741 | 109.32995 | 14642 ft | 435 kts | 62° |
| 2026-05-05 10:27 | 28.54086 | 109.36070 | 14642 ft | 435 kts | 62° |
| 2026-05-05 10:27 | 28.55437 | 109.39147 | 14643 ft | 435 kts | 62° |
| 2026-05-05 10:27 | 28.56787 | 109.42222 | 14645 ft | 434 kts | 62° |
| 2026-05-05 10:27 | 28.58105 | 109.45314 | 14643 ft | 435 kts | 65° |
| 2026-05-05 10:28 | 28.59214 | 109.48520 | 14646 ft | 435 kts | 67° |
| 2026-05-05 10:28 | 28.60183 | 109.51785 | 14641 ft | 437 kts | 76° |
| 2026-05-05 10:28 | 28.60421 | 109.55236 | 14639 ft | 440 kts | 92° |
| 2026-05-05 10:28 | 28.59798 | 109.58637 | 14639 ft | 442 kts | 109° |
| 2026-05-05 10:29 | 28.58363 | 109.61727 | 14639 ft | 443 kts | 126° |
| 2026-05-05 10:29 | 28.56235 | 109.64244 | 14645 ft | 443 kts | 142° |
| 2026-05-05 10:29 | 28.53571 | 109.65978 | 14636 ft | 442 kts | 160° |
| 2026-05-05 10:29 | 28.50599 | 109.66787 | 14640 ft | 440 kts | 176° |
| 2026-05-05 10:30 | 28.47546 | 109.66940 | 14639 ft | 439 kts | 180° |
| 2026-05-05 10:30 | 28.44493 | 109.67046 | 14639 ft | 439 kts | 180° |
| 2026-05-05 10:30 | 28.41442 | 109.67145 | 14641 ft | 439 kts | 180° |
| 2026-05-05 10:30 | 28.38426 | 109.67244 | 14639 ft | 440 kts | 179° |
| 2026-05-05 10:31 | 28.35367 | 109.67352 | 14644 ft | 440 kts | 179° |
| 2026-05-05 10:31 | 28.32307 | 109.67468 | 14645 ft | 440 kts | 179° |
| 2026-05-05 10:31 | 28.29250 | 109.67587 | 14274 ft | 438 kts | 179° |
| 2026-05-05 10:31 | 28.26213 | 109.67704 | 13531 ft | 435 kts | 180° |
| 2026-05-05 10:32 | 28.23206 | 109.67818 | 12790 ft | 430 kts | 180° |
| 2026-05-05 10:32 | 28.20230 | 109.67930 | 12088 ft | 425 kts | 179° |
| 2026-05-05 10:32 | 28.17298 | 109.68041 | 11402 ft | 419 kts | 179° |
| 2026-05-05 10:32 | 28.14428 | 109.68150 | 11076 ft | 404 kts | 180° |
| 2026-05-05 10:33 | 28.11673 | 109.68255 | 10834 ft | 388 kts | 179° |
| 2026-05-05 10:33 | 28.09024 | 109.68356 | 10596 ft | 373 kts | 180° |
| 2026-05-05 10:33 | 28.06474 | 109.68451 | 10362 ft | 361 kts | 179° |
| 2026-05-05 10:33 | 28.04008 | 109.68544 | 10126 ft | 348 kts | 180° |
| 2026-05-05 10:34 | 28.01626 | 109.68633 | 9897 ft | 337 kts | 180° |
| 2026-05-05 10:34 | 27.99313 | 109.68718 | 9719 ft | 327 kts | 180° |
| 2026-05-05 10:34 | 27.97111 | 109.68800 | 9594 ft | 315 kts | 180° |
| 2026-05-05 10:34 | 27.94966 | 109.68880 | 9466 ft | 303 kts | 180° |
| 2026-05-05 10:35 | 27.92892 | 109.68960 | 9338 ft | 295 kts | 180° |
| 2026-05-05 10:35 | 27.90853 | 109.69036 | 9207 ft | 292 kts | 180° |
| 2026-05-05 10:35 | 27.88824 | 109.69112 | 9079 ft | 291 kts | 180° |
| 2026-05-05 10:35 | 27.86796 | 109.69187 | 8719 ft | 293 kts | 180° |
| 2026-05-05 10:36 | 27.84797 | 109.69263 | 8386 ft | 289 kts | 180° |
| 2026-05-05 10:36 | 27.82794 | 109.69337 | 8021 ft | 287 kts | 180° |
| 2026-05-05 10:36 | 27.80812 | 109.69411 | 7655 ft | 284 kts | 180° |
| 2026-05-05 10:36 | 27.78847 | 109.69485 | 7270 ft | 281 kts | 179° |
| 2026-05-05 10:37 | 27.76875 | 109.69562 | 6634 ft | 288 kts | 179° |
| 2026-05-05 10:37 | 27.74870 | 109.69639 | 6246 ft | 286 kts | 179° |
| 2026-05-05 10:37 | 27.72922 | 109.69713 | 6080 ft | 274 kts | 179° |
| 2026-05-05 10:37 | 27.71067 | 109.69870 | 5950 ft | 262 kts | 168° |
| 2026-05-05 10:38 | 27.69450 | 109.70703 | 5795 ft | 254 kts | 144° |
| 2026-05-05 10:38 | 27.68267 | 109.72160 | 5502 ft | 251 kts | 129° |
| 2026-05-05 10:38 | 27.67233 | 109.73721 | 5241 ft | 246 kts | 129° |
| 2026-05-05 10:38 | 27.66220 | 109.75254 | 4986 ft | 242 kts | 129° |
| 2026-05-05 10:39 | 27.65225 | 109.76756 | 4714 ft | 237 kts | 128° |
| 2026-05-05 10:39 | 27.64244 | 109.78234 | 4417 ft | 234 kts | 129° |
| 2026-05-05 10:39 | 27.63271 | 109.79698 | 4130 ft | 233 kts | 129° |
| 2026-05-05 10:39 | 27.62303 | 109.81151 | 3847 ft | 230 kts | 129° |
| 2026-05-05 10:40 | 27.61244 | 109.82479 | 3567 ft | 225 kts | 150° |
| 2026-05-05 10:40 | 27.59790 | 109.82935 | 3314 ft | 216 kts | 187° |
| 2026-05-05 10:40 | 27.58440 | 109.82330 | 3269 ft | 210 kts | 216° |
| 2026-05-05 10:40 | 27.57314 | 109.81392 | 3213 ft | 195 kts | 216° |
| 2026-05-05 10:41 | 27.56285 | 109.80522 | 3132 ft | 175 kts | 215° |
| 2026-05-05 10:41 | 27.55364 | 109.79743 | 3057 ft | 157 kts | 214° |
| 2026-05-05 10:41 | 27.54521 | 109.79030 | 2994 ft | 147 kts | 214° |
| 2026-05-05 10:41 | 27.53725 | 109.78358 | 2953 ft | 141 kts | 214° |
| 2026-05-05 10:42 | 27.52175 | 109.77055 | 2534 ft | 138 kts | 214° |
| 2026-05-05 10:42 | 27.51410 | 109.76413 | 2356 ft | 137 kts | 214° |
| 2026-05-05 10:42 | 27.50640 | 109.75770 | 2170 ft | 139 kts | 214° |
| 2026-05-05 10:43 | 27.49878 | 109.75131 | 1991 ft | 137 kts | 214° |
| 2026-05-05 10:43 | 27.49117 | 109.74493 | 1781 ft | 137 kts | 215° |
| 2026-05-05 10:43 | 27.48343 | 109.73843 | 1617 ft | 140 kts | 214° |
| 2026-05-05 10:43 | 27.47560 | 109.73184 | 1414 ft | 139 kts | 212° |
| 2026-05-05 10:44 | 27.46791 | 109.72538 | 1211 ft | 138 kts | 215° |
| 2026-05-05 10:44 | 27.46024 | 109.71882 | 1032 ft | 140 kts | 216° |
| 2026-05-05 10:44 | 27.45258 | 109.71238 | 841 ft | 130 kts | 214° |
| 2026-05-05 10:44 | 27.44632 | 109.70724 | 844 ft | 77 kts | 217° |
| 2026-05-05 10:45 | 27.44391 | 109.70522 | 837 ft | 30 kts | 216° |
| 2026-05-05 10:45 | 27.44341 | 109.70426 | 844 ft | 14 kts | 290° |
| 2026-05-05 10:45 | 27.44399 | 109.70340 | 839 ft | 14 kts | 306° |
| 2026-05-05 10:45 | 27.44470 | 109.70293 | 843 ft | 10 kts | 307° |
| 2026-05-05 10:46 | 27.44503 | 109.70244 | 846 ft | 5 kts | 307° |
| 2026-05-05 10:46 | 27.44507 | 109.70238 | 841 ft | 0 kts | 308° |